createdAt,value
2023-05-22T00:00:31.884Z,65.19
2023-05-22T00:02:38.767Z,65.52
2023-05-22T00:04:40.599Z,65.40
2023-05-22T00:06:42.951Z,65.33
2023-05-22T00:08:44.869Z,65.21
2023-05-22T00:10:46.360Z,65.48
2023-05-22T00:12:47.944Z,65.75
2023-05-22T00:14:49.444Z,65.71
2023-05-22T00:16:51.046Z,65.96
2023-05-22T00:18:52.784Z,66.05
2023-05-22T00:20:54.472Z,66.19
2023-05-22T00:22:56.917Z,66.19
2023-05-22T00:24:58.477Z,66.20
2023-05-22T00:27:00.048Z,66.20
2023-05-22T00:29:02.049Z,66.09
2023-05-22T00:31:04.007Z,66.31
2023-05-22T00:33:05.680Z,66.23
2023-05-22T00:35:07.968Z,65.96
2023-05-22T00:37:10.730Z,66.20
2023-05-22T00:39:12.251Z,66.01
2023-05-22T00:41:14.006Z,66.19
2023-05-22T00:43:17.444Z,66.00
2023-05-22T00:45:19.001Z,66.09
2023-05-22T00:47:21.225Z,66.15
2023-05-22T00:49:22.726Z,66.59
2023-05-22T00:51:24.896Z,66.42
2023-05-22T00:53:28.767Z,66.51
2023-05-22T00:55:30.801Z,66.64
2023-05-22T00:57:33.891Z,66.64
2023-05-22T00:59:36.240Z,66.53
2023-05-22T01:01:42.164Z,66.74
2023-05-22T01:03:45.915Z,66.83
2023-05-22T01:05:47.653Z,66.74
2023-05-22T01:07:49.186Z,66.85
2023-05-22T01:09:52.580Z,66.98
2023-05-22T01:12:16.969Z,66.88
2023-05-22T01:14:34.020Z,66.87
2023-05-22T01:16:41.826Z,66.98
2023-05-22T01:18:58.771Z,66.96
2023-05-22T01:21:26.330Z,66.95
2023-05-22T01:23:42.921Z,66.96
2023-05-22T01:26:06.492Z,66.97
2023-05-22T01:28:29.831Z,67.18
2023-05-22T01:30:56.148Z,67.02
2023-05-22T01:32:59.066Z,67.12
2023-05-22T01:35:03.443Z,67.26
2023-05-22T01:37:05.352Z,67.08
2023-05-22T01:39:07.870Z,67.42
2023-05-22T01:41:09.874Z,67.29
2023-05-22T01:43:12.583Z,67.48
2023-05-22T01:45:14.586Z,67.33
2023-05-22T01:47:16.850Z,67.33
2023-05-22T01:49:18.608Z,67.22
2023-05-22T01:51:42.023Z,67.28
2023-05-22T01:53:54.482Z,67.34
2023-05-22T01:56:09.994Z,67.55
2023-05-22T01:58:38.729Z,67.46
2023-05-22T02:00:43.779Z,67.41
2023-05-22T02:02:50.812Z,67.58
2023-05-22T02:04:56.995Z,67.51
2023-05-22T02:07:01.121Z,67.42
2023-05-22T02:09:03.127Z,67.73
2023-05-22T02:11:05.419Z,67.75
2023-05-22T02:13:07.090Z,68.06
2023-05-22T02:15:09.066Z,68.57
2023-05-22T02:17:10.590Z,68.80
2023-05-22T02:19:12.084Z,68.80
2023-05-22T02:21:13.765Z,69.08
2023-05-22T02:23:15.285Z,69.02
2023-05-22T02:25:17.749Z,69.29
2023-05-22T02:27:19.313Z,69.30
2023-05-22T02:29:20.849Z,69.42
2023-05-22T02:31:22.470Z,69.47
2023-05-22T02:33:24.023Z,69.14
2023-05-22T02:35:25.673Z,68.94
2023-05-22T02:37:27.178Z,69.16
2023-05-22T02:39:28.722Z,68.99
2023-05-22T02:41:30.350Z,68.74
2023-05-22T02:43:31.837Z,68.87
2023-05-22T02:45:33.396Z,68.79
2023-05-22T02:47:34.956Z,68.78
2023-05-22T02:49:36.484Z,68.79
2023-05-22T02:51:37.995Z,68.75
2023-05-22T02:53:41.228Z,68.88
2023-05-22T02:55:43.406Z,68.82
2023-05-22T02:57:44.903Z,68.90
2023-05-22T02:59:46.437Z,68.88
2023-05-22T03:01:48.472Z,68.79
2023-05-22T03:03:50.687Z,68.40
2023-05-22T03:05:58.498Z,68.52
2023-05-22T03:08:00.122Z,68.46
2023-05-22T03:10:01.730Z,68.03
2023-05-22T03:12:03.651Z,68.13
2023-05-22T03:14:05.231Z,68.12
2023-05-22T03:16:07.152Z,68.10
2023-05-22T03:18:08.702Z,68.29
2023-05-22T03:20:10.834Z,68.33
2023-05-22T03:22:12.524Z,68.43
2023-05-22T03:24:14.101Z,69.45
2023-05-22T03:26:15.590Z,70.17
2023-05-22T03:28:17.116Z,71.75
2023-05-22T03:30:18.748Z,72.35
2023-05-22T03:32:20.333Z,72.80
2023-05-22T03:34:27.354Z,72.28
2023-05-22T03:36:32.362Z,71.24
2023-05-22T03:38:33.973Z,70.50
2023-05-22T03:40:35.634Z,69.93
2023-05-22T03:42:37.112Z,69.85
2023-05-22T03:44:38.700Z,69.90
2023-05-22T03:46:40.329Z,69.70
2023-05-22T03:48:41.824Z,69.30
2023-05-22T03:50:43.464Z,69.32
2023-05-22T03:52:44.988Z,69.27
2023-05-22T03:54:46.486Z,69.46
2023-05-22T03:56:48.034Z,69.64
2023-05-22T03:58:50.308Z,69.38
2023-05-22T04:00:54.107Z,69.62
2023-05-22T04:02:58.625Z,70.50
2023-05-22T04:05:00.689Z,70.96
2023-05-22T04:07:02.681Z,70.55
2023-05-22T04:09:04.528Z,70.25
2023-05-22T04:11:06.197Z,70.40
2023-05-22T04:13:07.733Z,70.32
2023-05-22T04:15:09.559Z,70.12
2023-05-22T04:17:11.844Z,69.72
2023-05-22T04:19:14.037Z,69.35
2023-05-22T04:21:15.596Z,69.08
2023-05-22T04:23:17.673Z,68.69
2023-05-22T04:25:19.187Z,69.32
2023-05-22T04:27:22.550Z,69.29
2023-05-22T04:29:24.771Z,69.50
2023-05-22T04:31:26.395Z,69.16
2023-05-22T04:33:29.007Z,69.04
2023-05-22T04:35:30.612Z,69.02
2023-05-22T04:37:32.167Z,68.74
2023-05-22T04:39:34.324Z,68.25
2023-05-22T04:41:35.876Z,68.33
2023-05-22T04:43:38.704Z,68.68
2023-05-22T04:45:42.269Z,68.65
2023-05-22T04:47:43.803Z,68.73
2023-05-22T04:49:46.325Z,68.47
2023-05-22T04:51:47.809Z,67.91
2023-05-22T04:53:49.826Z,68.00
2023-05-22T04:55:51.398Z,67.81
2023-05-22T04:57:53.646Z,67.53
2023-05-22T04:59:57.065Z,67.46
2023-05-22T05:01:58.719Z,67.55
2023-05-22T05:04:00.707Z,66.77
2023-05-22T05:06:02.318Z,66.71
2023-05-22T05:08:03.892Z,66.69
2023-05-22T05:10:07.052Z,67.19
2023-05-22T05:12:08.767Z,67.15
2023-05-22T05:14:10.335Z,66.89
2023-05-22T05:16:12.216Z,66.90
2023-05-22T05:18:13.934Z,66.25
2023-05-22T05:20:15.584Z,66.18
2023-05-22T05:22:17.103Z,65.96
2023-05-22T05:24:18.863Z,65.97
2023-05-22T05:26:21.878Z,65.74
2023-05-22T05:28:23.430Z,65.40
2023-05-22T05:30:24.969Z,65.17
2023-05-22T05:32:29.751Z,65.11
2023-05-22T05:34:31.380Z,64.88
2023-05-22T05:36:32.915Z,65.02
2023-05-22T05:38:34.478Z,64.90
2023-05-22T05:40:36.204Z,64.80
2023-05-22T05:42:37.762Z,64.83
2023-05-22T05:44:39.393Z,64.49
2023-05-22T05:46:41.419Z,64.68
2023-05-22T05:48:43.901Z,64.67
2023-05-22T05:50:45.596Z,64.39
2023-05-22T05:52:47.082Z,64.40
2023-05-22T05:54:58.645Z,64.81
2023-05-22T05:57:00.211Z,64.70
2023-05-22T05:59:01.745Z,64.71
2023-05-22T06:01:03.526Z,65.00
2023-05-22T06:03:05.054Z,65.25
2023-05-22T06:05:07.033Z,65.16
2023-05-22T06:07:08.585Z,65.44
2023-05-22T06:09:10.402Z,65.71
2023-05-22T06:11:11.971Z,65.60
2023-05-22T06:13:13.537Z,65.41
2023-05-22T06:15:15.036Z,65.60
2023-05-22T06:17:16.871Z,65.58
2023-05-22T06:19:18.464Z,65.41
2023-05-22T06:21:22.808Z,65.44
2023-05-22T06:23:24.310Z,65.58
2023-05-22T06:25:29.942Z,65.37
2023-05-22T06:27:32.093Z,65.76
2023-05-22T06:29:33.619Z,65.85
2023-05-22T06:31:38.032Z,65.82
2023-05-22T06:33:40.774Z,65.61
2023-05-22T06:35:42.599Z,65.22
2023-05-22T06:37:44.179Z,64.57
2023-05-22T06:39:45.771Z,64.59
2023-05-22T06:41:47.292Z,64.31
2023-05-22T06:43:48.799Z,64.03
2023-05-22T06:45:50.523Z,63.67
2023-05-22T06:47:55.523Z,63.35
2023-05-22T06:49:57.105Z,63.50
2023-05-22T06:51:58.628Z,63.26
2023-05-22T06:54:00.193Z,63.45
2023-05-22T06:56:01.692Z,63.26
2023-05-22T06:58:03.199Z,63.28
2023-05-22T07:00:09.277Z,63.36
2023-05-22T07:02:10.825Z,63.25
2023-05-22T07:04:13.354Z,63.13
2023-05-22T07:06:15.568Z,63.10
2023-05-22T07:08:17.150Z,62.97
2023-05-22T07:10:18.660Z,63.53
2023-05-22T07:12:20.891Z,63.60
2023-05-22T07:14:22.485Z,63.25
2023-05-22T07:16:25.660Z,63.44
2023-05-22T07:18:27.198Z,62.92
2023-05-22T07:20:28.879Z,63.43
2023-05-22T07:22:30.776Z,63.31
2023-05-22T07:24:32.292Z,62.37
2023-05-22T07:26:38.005Z,62.87
2023-05-22T07:28:39.534Z,63.26
2023-05-22T07:30:41.380Z,63.18
2023-05-22T07:32:43.154Z,63.93
2023-05-22T07:34:44.778Z,64.44
2023-05-22T07:36:47.184Z,64.68
2023-05-22T07:38:48.713Z,65.06
2023-05-22T07:40:50.366Z,65.49
2023-05-22T07:42:51.886Z,65.79
2023-05-22T07:44:53.413Z,66.27
2023-05-22T07:46:55.604Z,66.56
2023-05-22T07:48:57.528Z,67.20
2023-05-22T07:50:59.073Z,67.02
2023-05-22T07:53:01.043Z,66.83
2023-05-22T07:55:02.620Z,66.64
2023-05-22T07:57:04.260Z,66.09
2023-05-22T07:59:07.404Z,66.00
2023-05-22T08:01:09.725Z,65.73
2023-05-22T08:03:12.354Z,65.45
2023-05-22T08:05:14.220Z,65.67
2023-05-22T08:07:15.818Z,65.67
2023-05-22T08:09:17.377Z,65.84
2023-05-22T08:11:19.071Z,66.09
2023-05-22T08:13:20.681Z,65.83
2023-05-22T08:15:22.161Z,65.75
2023-05-22T08:17:23.742Z,65.76
2023-05-22T08:19:25.915Z,66.06
2023-05-22T08:21:27.501Z,66.24
2023-05-22T08:23:29.924Z,65.95
2023-05-22T08:25:31.601Z,65.97
2023-05-22T08:27:33.113Z,65.85
2023-05-22T08:29:34.667Z,65.36
2023-05-22T08:31:36.230Z,65.17
2023-05-22T08:33:37.968Z,64.86
2023-05-22T08:35:39.708Z,64.43
2023-05-22T08:37:41.532Z,64.45
2023-05-22T08:39:43.076Z,63.98
2023-05-22T08:41:45.036Z,63.79
2023-05-22T08:43:46.531Z,63.76
2023-05-22T08:45:59.792Z,63.77
2023-05-22T08:48:06.061Z,63.70
2023-05-22T08:50:09.289Z,63.67
2023-05-22T08:52:14.462Z,63.94
2023-05-22T08:54:18.715Z,64.10
2023-05-22T08:56:21.185Z,63.94
2023-05-22T08:58:23.613Z,64.27
2023-05-22T09:00:25.240Z,64.22
2023-05-22T09:02:27.078Z,64.28
2023-05-22T09:04:28.798Z,64.64
2023-05-22T09:06:30.455Z,64.85
2023-05-22T09:08:31.974Z,64.92
2023-05-22T09:10:34.087Z,65.25
2023-05-22T09:12:35.921Z,65.71
2023-05-22T09:14:41.164Z,65.77
2023-05-22T09:16:46.081Z,66.04
2023-05-22T09:18:47.777Z,66.09
2023-05-22T09:20:50.832Z,66.16
2023-05-22T09:22:52.653Z,66.24
2023-05-22T09:24:59.205Z,66.39
2023-05-22T09:27:04.147Z,66.45
2023-05-22T09:29:07.330Z,66.70
2023-05-22T09:31:09.502Z,66.58
2023-05-22T09:33:12.931Z,66.53
2023-05-22T09:35:14.773Z,66.43
2023-05-22T09:37:17.484Z,66.40
2023-05-22T09:39:19.016Z,66.40
2023-05-22T09:41:22.518Z,66.41
2023-05-22T09:43:27.747Z,66.04
2023-05-22T09:45:29.329Z,66.01
2023-05-22T09:47:34.339Z,65.68
2023-05-22T09:49:37.437Z,65.39
2023-05-22T09:51:43.908Z,65.27
2023-05-22T09:53:48.174Z,65.88
2023-05-22T09:55:51.040Z,66.15
2023-05-22T09:57:53.513Z,66.86
2023-05-22T09:59:58.243Z,67.29
2023-05-22T10:02:02.080Z,67.10
2023-05-22T10:04:04.758Z,65.54
2023-05-22T10:06:07.480Z,64.87
2023-05-22T10:08:14.812Z,65.41
2023-05-22T10:10:18.934Z,65.84
2023-05-22T10:12:22.109Z,64.95
2023-05-22T10:14:24.810Z,65.14
2023-05-22T10:16:27.968Z,65.57
2023-05-22T10:18:30.409Z,65.54
2023-05-22T10:20:32.143Z,65.71
2023-05-22T10:22:40.486Z,65.73
2023-05-22T10:24:42.677Z,65.51
2023-05-22T10:26:44.637Z,65.77
2023-05-22T10:28:53.356Z,65.99
2023-05-22T10:31:06.589Z,66.36
2023-05-22T10:33:14.238Z,65.87
2023-05-22T10:35:40.261Z,66.47
2023-05-22T10:37:44.631Z,67.18
2023-05-22T10:40:02.502Z,67.10
2023-05-22T10:42:04.442Z,67.30
2023-05-22T10:44:06.742Z,67.62
2023-05-22T10:46:09.804Z,67.99
2023-05-22T10:48:12.576Z,67.91
2023-05-22T10:50:14.248Z,68.56
2023-05-22T10:52:16.123Z,69.09
2023-05-22T10:54:17.764Z,69.12
2023-05-22T10:56:19.565Z,69.11
2023-05-22T10:58:32.336Z,68.75
2023-05-22T11:00:37.968Z,67.81
2023-05-22T11:02:44.528Z,67.90
2023-05-22T11:04:46.104Z,67.61
2023-05-22T11:07:01.931Z,67.73
2023-05-22T11:09:30.132Z,67.84
2023-05-22T11:11:31.534Z,67.58
2023-05-22T11:13:34.454Z,67.57
2023-05-22T11:15:36.024Z,67.57
2023-05-22T11:17:46.694Z,67.34
2023-05-22T11:20:06.797Z,67.63
2023-05-22T11:22:08.800Z,67.40
2023-05-22T11:24:10.962Z,67.13
2023-05-22T11:26:21.464Z,67.09
2023-05-22T11:28:23.268Z,67.03
2023-05-22T11:30:26.125Z,67.13
2023-05-22T11:32:28.278Z,66.79
2023-05-22T11:34:29.842Z,66.47
2023-05-22T11:36:31.835Z,66.44
2023-05-22T11:38:33.615Z,66.34
2023-05-22T11:40:35.146Z,65.79
2023-05-22T11:42:37.727Z,65.77
2023-05-22T11:44:40.648Z,66.40
2023-05-22T11:46:42.323Z,66.43
2023-05-22T11:48:44.188Z,66.91
2023-05-22T11:50:45.966Z,66.40
2023-05-22T11:52:47.951Z,66.04
2023-05-22T11:54:51.595Z,65.62
2023-05-22T11:56:53.113Z,65.52
2023-05-22T11:58:54.614Z,65.72
2023-05-22T12:01:01.113Z,65.39
2023-05-22T12:03:02.813Z,65.36
2023-05-22T12:05:05.470Z,65.19
2023-05-22T12:07:07.812Z,64.73
2023-05-22T12:09:09.656Z,65.15
2023-05-22T12:11:14.340Z,64.99
2023-05-22T12:13:25.413Z,64.79
2023-05-22T12:15:27.096Z,64.72
2023-05-22T12:17:28.886Z,64.64
2023-05-22T12:19:30.660Z,64.14
2023-05-22T12:21:32.388Z,64.41
2023-05-22T12:23:34.001Z,64.18
2023-05-22T12:25:38.649Z,63.93
2023-05-22T12:27:40.142Z,64.16
2023-05-22T12:29:42.737Z,64.96
2023-05-22T12:31:46.442Z,65.31
2023-05-22T12:33:48.116Z,64.39
2023-05-22T12:35:52.787Z,64.06
2023-05-22T12:37:54.293Z,64.64
2023-05-22T12:40:00.956Z,64.67
2023-05-22T12:42:02.474Z,64.87
2023-05-22T12:44:04.822Z,65.33
2023-05-22T12:46:06.352Z,65.19
2023-05-22T12:48:08.791Z,65.87
2023-05-22T12:50:10.595Z,65.62
2023-05-22T12:52:13.053Z,65.85
2023-05-22T12:54:15.384Z,66.21
2023-05-22T12:56:16.932Z,66.26
2023-05-22T12:58:18.531Z,65.78
2023-05-22T13:00:20.346Z,66.15
2023-05-22T13:02:21.918Z,65.99
2023-05-22T13:04:23.422Z,66.00
2023-05-22T13:06:24.993Z,66.56
2023-05-22T13:08:26.513Z,66.87
2023-05-22T13:10:28.036Z,66.82
2023-05-22T13:12:31.493Z,67.04
2023-05-22T13:14:33.258Z,66.70
2023-05-22T13:16:34.898Z,68.92
2023-05-22T13:18:36.527Z,69.49
2023-05-22T13:20:38.665Z,69.82
2023-05-22T13:22:41.731Z,70.10
2023-05-22T13:24:43.239Z,67.92
2023-05-22T13:26:44.773Z,67.05
2023-05-22T13:28:46.309Z,66.43
2023-05-22T13:30:47.825Z,64.68
2023-05-22T13:32:49.473Z,64.54
2023-05-22T13:34:50.967Z,64.07
2023-05-22T13:36:52.658Z,63.97
2023-05-22T13:38:54.176Z,64.44
2023-05-22T13:40:55.805Z,64.21
2023-05-22T13:42:57.374Z,63.97
2023-05-22T13:44:58.898Z,64.02
2023-05-22T13:47:00.558Z,65.91
2023-05-22T13:49:02.109Z,66.83
2023-05-22T13:51:03.759Z,64.96
2023-05-22T13:53:05.333Z,63.96
2023-05-22T13:55:07.129Z,63.90
2023-05-22T13:57:08.709Z,64.20
2023-05-22T13:59:10.555Z,65.04
2023-05-22T14:01:12.060Z,64.95
2023-05-22T14:03:17.599Z,65.27
2023-05-22T14:05:19.471Z,66.19
2023-05-22T14:09:23.669Z,65.88
2023-05-22T14:11:25.183Z,65.33
2023-05-22T14:13:26.721Z,66.40
2023-05-22T14:15:28.245Z,66.52
2023-05-22T14:17:29.810Z,65.82
2023-05-22T14:19:31.411Z,64.64
2023-05-22T14:21:33.054Z,64.55
2023-05-22T14:23:34.606Z,65.28
2023-05-22T14:25:36.226Z,65.28
2023-05-22T14:27:37.732Z,64.92
2023-05-22T14:29:39.209Z,64.10
2023-05-22T14:31:50.498Z,64.00
2023-05-22T14:33:53.113Z,63.96
2023-05-22T14:35:54.632Z,64.12
2023-05-22T14:37:56.161Z,63.59
2023-05-22T14:39:57.654Z,64.01
2023-05-22T14:41:59.257Z,63.07
2023-05-22T14:44:00.900Z,63.64
2023-05-22T14:46:02.536Z,63.21
2023-05-22T14:48:04.791Z,63.22
2023-05-22T14:52:16.093Z,63.57
2023-05-22T14:54:19.070Z,64.21
2023-05-22T14:56:21.807Z,64.67
2023-05-22T14:58:23.304Z,64.41
2023-05-22T15:00:24.863Z,64.36
2023-05-22T15:02:26.544Z,64.16
2023-05-22T15:04:28.125Z,64.48
2023-05-22T15:06:29.722Z,63.92
2023-05-22T15:08:31.231Z,64.09
2023-05-22T15:10:32.829Z,65.77
2023-05-22T15:12:34.401Z,66.16
2023-05-22T15:14:36.011Z,66.54
2023-05-22T15:16:37.607Z,66.16
2023-05-22T15:18:39.202Z,66.58
2023-05-22T15:20:41.152Z,67.07
2023-05-22T15:22:42.738Z,67.51
2023-05-22T15:24:48.184Z,68.21
2023-05-22T15:26:49.716Z,68.67
2023-05-22T15:28:51.315Z,69.19
2023-05-22T15:30:52.956Z,68.24
2023-05-22T15:32:54.482Z,69.17
2023-05-22T15:34:56.099Z,69.19
2023-05-22T15:36:57.613Z,69.36
2023-05-22T15:38:59.131Z,69.34
2023-05-22T15:41:00.700Z,69.01
2023-05-22T15:43:04.024Z,69.16
2023-05-22T15:45:06.156Z,69.32
2023-05-22T15:47:07.673Z,69.54
2023-05-22T15:49:09.154Z,70.46
2023-05-22T15:51:11.396Z,70.46
2023-05-22T15:53:13.027Z,70.69
2023-05-22T15:55:14.687Z,70.52
2023-05-22T15:57:16.720Z,71.75
2023-05-22T15:59:18.259Z,72.19
2023-05-22T16:01:19.866Z,72.66
2023-05-22T16:03:21.575Z,73.02
2023-05-22T16:05:23.274Z,72.95
2023-05-22T16:07:24.822Z,72.97
2023-05-22T16:09:26.398Z,72.39
2023-05-22T16:11:27.897Z,72.97
2023-05-22T16:13:29.442Z,73.31
2023-05-22T16:15:31.691Z,72.65
2023-05-22T16:17:33.289Z,72.73
2023-05-22T16:19:34.978Z,72.77
2023-05-22T16:21:36.854Z,72.30
2023-05-22T16:23:38.368Z,72.37
2023-05-22T16:25:40.058Z,71.38
2023-05-22T16:27:41.738Z,70.90
2023-05-22T16:29:43.238Z,70.07
2023-05-22T16:31:44.813Z,69.11
2023-05-22T16:33:46.455Z,69.08
2023-05-22T16:35:48.489Z,70.23
2023-05-22T16:37:50.844Z,71.81
2023-05-22T16:39:52.760Z,72.37
2023-05-22T16:41:54.286Z,73.12
2023-05-22T16:43:55.966Z,73.43
2023-05-22T16:45:57.466Z,74.23
2023-05-22T16:47:59.026Z,74.25
2023-05-22T16:50:00.824Z,73.86
2023-05-22T16:52:02.561Z,73.99
2023-05-22T16:54:04.275Z,74.09
2023-05-22T16:56:06.030Z,74.14
2023-05-22T16:58:09.092Z,74.79
2023-05-22T17:00:11.161Z,74.61
2023-05-22T17:02:13.622Z,74.76
2023-05-22T17:04:15.923Z,74.97
2023-05-22T17:06:20.184Z,75.04
2023-05-22T17:08:22.589Z,75.54
2023-05-22T17:10:24.086Z,75.58
2023-05-22T17:12:25.667Z,75.48
2023-05-22T17:14:27.190Z,75.61
2023-05-22T17:16:28.705Z,73.96
2023-05-22T17:18:30.603Z,74.16
2023-05-22T17:20:32.880Z,73.48
2023-05-22T17:22:36.020Z,73.11
2023-05-22T17:24:37.606Z,72.95
2023-05-22T17:26:42.844Z,73.76
2023-05-22T17:28:44.631Z,74.70
2023-05-22T17:30:46.657Z,75.09
2023-05-22T17:32:50.364Z,75.42
2023-05-22T17:34:52.109Z,75.33
2023-05-22T17:36:53.616Z,74.96
2023-05-22T17:38:55.101Z,74.80
2023-05-22T17:40:56.684Z,74.99
2023-05-22T17:43:00.319Z,75.08
2023-05-22T17:45:01.832Z,74.98
2023-05-22T17:47:04.312Z,74.98
2023-05-22T17:49:05.813Z,74.83
2023-05-22T17:51:07.339Z,75.01
2023-05-22T17:53:08.836Z,75.22
2023-05-22T17:55:10.528Z,74.89
2023-05-22T17:57:12.101Z,75.11
2023-05-22T17:59:13.774Z,74.86
2023-05-22T18:01:16.874Z,75.03
2023-05-22T18:03:21.749Z,75.02
2023-05-22T18:05:23.393Z,75.19
2023-05-22T18:07:24.903Z,74.98
2023-05-22T18:09:26.434Z,74.56
2023-05-22T18:11:28.028Z,74.37
2023-05-22T18:13:29.587Z,73.92
2023-05-22T18:15:32.889Z,73.07
2023-05-22T18:17:34.782Z,73.08
2023-05-22T18:19:36.404Z,73.61
2023-05-22T18:21:37.959Z,73.40
2023-05-22T18:23:39.469Z,73.76
2023-05-22T18:25:41.544Z,74.17
2023-05-22T18:27:43.178Z,74.56
2023-05-22T18:29:44.752Z,74.62
2023-05-22T18:31:46.414Z,74.75
2023-05-22T18:33:47.950Z,74.94
2023-05-22T18:35:49.620Z,75.45
2023-05-22T18:37:51.437Z,74.33
2023-05-22T18:39:53.008Z,74.19
2023-05-22T18:41:54.650Z,73.81
2023-05-22T18:43:56.294Z,74.00
2023-05-22T18:45:58.358Z,74.56
2023-05-22T18:47:59.907Z,75.58
2023-05-22T18:50:01.563Z,76.23
2023-05-22T18:52:03.345Z,76.85
2023-05-22T18:54:04.872Z,77.23
2023-05-22T18:56:06.417Z,77.84
2023-05-22T18:58:08.045Z,78.16
2023-05-22T19:00:10.444Z,78.39
2023-05-22T19:02:11.955Z,78.84
2023-05-22T19:04:13.635Z,79.24
2023-05-22T19:06:15.194Z,79.51
2023-05-22T19:08:16.788Z,79.79
2023-05-22T19:10:18.460Z,79.80
2023-05-22T19:12:20.100Z,80.27
2023-05-22T19:14:21.664Z,80.34
2023-05-22T19:16:23.245Z,80.43
2023-05-22T19:18:24.963Z,80.59
2023-05-22T19:20:26.608Z,80.62
2023-05-22T19:22:28.138Z,80.56
2023-05-22T19:24:29.693Z,80.49
2023-05-22T19:26:31.658Z,80.22
2023-05-22T19:28:33.272Z,80.47
2023-05-22T19:30:35.040Z,80.40
2023-05-22T19:32:36.660Z,80.73
2023-05-22T19:34:38.632Z,81.04
2023-05-22T19:36:40.130Z,81.16
2023-05-22T19:38:41.646Z,81.63
2023-05-22T19:40:43.218Z,82.05
2023-05-22T19:42:44.818Z,82.35
2023-05-22T19:44:46.334Z,82.44
2023-05-22T19:46:48.073Z,82.88
2023-05-22T19:48:49.638Z,82.66
2023-05-22T19:50:51.472Z,82.97
2023-05-22T19:52:52.998Z,82.91
2023-05-22T19:54:55.061Z,83.24
2023-05-22T19:56:56.573Z,83.66
2023-05-22T19:58:58.048Z,83.86
2023-05-22T20:00:59.579Z,83.84
2023-05-22T20:03:01.437Z,83.82
2023-05-22T20:05:03.274Z,83.99
2023-05-22T20:07:05.672Z,84.36
2023-05-22T20:09:07.152Z,84.24
2023-05-22T20:11:08.807Z,84.29
2023-05-22T20:13:10.356Z,84.42
2023-05-22T20:15:14.773Z,84.30
2023-05-22T20:17:18.120Z,84.61
2023-05-22T20:19:19.885Z,84.75
2023-05-22T20:21:21.595Z,84.73
2023-05-22T20:23:23.133Z,85.11
2023-05-22T20:25:24.844Z,85.67
2023-05-22T20:27:26.493Z,86.03
2023-05-22T20:29:28.071Z,86.70
2023-05-22T20:31:29.603Z,87.02
2023-05-22T20:33:31.494Z,87.14
2023-05-22T20:35:33.803Z,87.64
2023-05-22T20:37:35.328Z,87.74
2023-05-22T20:39:37.508Z,87.86
2023-05-22T20:41:39.035Z,88.19
2023-05-22T20:43:43.283Z,88.42
2023-05-22T20:45:45.914Z,88.81
2023-05-22T20:47:47.665Z,89.49
2023-05-22T20:49:49.326Z,89.70
2023-05-22T20:51:51.515Z,89.45
2023-05-22T20:53:53.509Z,89.73
2023-05-22T20:55:55.430Z,89.31
2023-05-22T20:57:56.965Z,89.18
2023-05-22T20:59:58.604Z,88.94
2023-05-22T21:02:01.187Z,89.14
2023-05-22T21:04:03.086Z,89.16
2023-05-22T21:06:04.910Z,89.45
2023-05-22T21:08:06.422Z,89.71
2023-05-22T21:10:08.488Z,89.93
2023-05-22T21:12:10.048Z,90.41
2023-05-22T21:14:11.612Z,90.90
2023-05-22T21:16:13.150Z,91.17
2023-05-22T21:18:14.722Z,91.48
2023-05-22T21:20:16.352Z,91.92
2023-05-22T21:22:17.880Z,92.15
2023-05-22T21:24:20.727Z,92.35
2023-05-22T21:26:23.040Z,92.39
2023-05-22T21:28:24.676Z,92.57
2023-05-22T21:30:26.161Z,92.61
2023-05-22T21:32:27.763Z,92.63
2023-05-22T21:34:29.312Z,92.57
2023-05-22T21:36:31.865Z,92.49
2023-05-22T21:38:33.354Z,92.50
2023-05-22T21:40:34.880Z,92.59
2023-05-22T21:42:46.689Z,92.54
2023-05-22T21:44:48.721Z,92.49
2023-05-22T21:46:50.280Z,92.24
2023-05-22T21:48:53.576Z,92.17
2023-05-22T21:50:55.411Z,92.16
2023-05-22T21:52:56.920Z,92.22
2023-05-22T21:54:58.693Z,91.74
2023-05-22T21:57:00.406Z,91.65
2023-05-22T21:59:01.943Z,91.66
2023-05-22T22:01:03.617Z,91.90
2023-05-22T22:03:05.341Z,91.52
2023-05-22T22:05:07.252Z,91.35
2023-05-22T22:07:08.832Z,91.65
2023-05-22T22:09:10.733Z,91.81
2023-05-22T22:11:12.266Z,91.99
2023-05-22T22:13:13.794Z,92.05
2023-05-22T22:15:15.581Z,90.91
2023-05-22T22:17:17.085Z,91.22
2023-05-22T22:19:18.676Z,90.62
2023-05-22T22:21:20.559Z,90.13
2023-05-22T22:23:22.202Z,90.14
2023-05-22T22:25:23.730Z,89.48
2023-05-22T22:27:25.492Z,89.58
2023-05-22T22:29:26.991Z,89.06
2023-05-22T22:31:28.531Z,89.16
2023-05-22T22:33:30.531Z,89.18
2023-05-22T22:35:32.107Z,89.13
2023-05-22T22:37:33.603Z,89.08
2023-05-22T22:39:35.105Z,88.93
2023-05-22T22:41:36.626Z,88.93
2023-05-22T22:43:38.133Z,89.01
2023-05-22T22:45:40.229Z,88.91
2023-05-22T22:47:42.019Z,88.69
2023-05-22T22:49:43.553Z,88.24
2023-05-22T22:51:45.054Z,87.96
2023-05-22T22:53:46.620Z,88.29
2023-05-22T22:55:48.962Z,88.67
2023-05-22T22:57:51.558Z,88.81
2023-05-22T22:59:53.049Z,89.41
2023-05-22T23:01:54.603Z,89.56
2023-05-22T23:03:56.247Z,89.31
2023-05-22T23:05:57.838Z,89.38
2023-05-22T23:08:02.014Z,89.82
2023-05-22T23:10:04.191Z,89.94
2023-05-22T23:12:06.412Z,89.98
2023-05-22T23:14:08.802Z,90.45
2023-05-22T23:16:10.397Z,90.90
2023-05-22T23:18:13.898Z,90.88
2023-05-22T23:20:15.526Z,90.33
2023-05-22T23:22:18.925Z,90.51
2023-05-22T23:24:20.431Z,90.48
2023-05-22T23:26:22.018Z,90.57
2023-05-22T23:28:23.525Z,90.66
2023-05-22T23:30:25.093Z,90.69
2023-05-22T23:32:26.693Z,90.87
2023-05-22T23:34:28.252Z,91.13
2023-05-22T23:36:29.833Z,90.84
2023-05-22T23:38:31.404Z,90.96
2023-05-22T23:40:32.940Z,91.29
2023-05-22T23:42:35.630Z,91.23
2023-05-22T23:44:37.243Z,91.16
2023-05-22T23:46:39.779Z,91.12
2023-05-22T23:48:42.051Z,91.38
2023-05-22T23:50:43.771Z,91.43
2023-05-22T23:52:45.974Z,91.69
2023-05-22T23:54:47.502Z,91.65
2023-05-22T23:56:49.023Z,91.98
2023-05-22T23:58:50.637Z,91.82
